sensor_id;sensor_type;location;lat;lon;timestamp;P1;durP1;ratioP1;P2;durP2;ratioP2
25717;SDS011;13574;52.040;5.692;2023-04-03T00:01:03;4.80;;;2.10;;
25717;SDS011;13574;52.040;5.692;2023-04-03T00:03:30;3.95;;;1.75;;
25717;SDS011;13574;52.040;5.692;2023-04-03T00:05:55;3.33;;;1.70;;
25717;SDS011;13574;52.040;5.692;2023-04-03T00:08:21;4.03;;;1.70;;
25717;SDS011;13574;52.040;5.692;2023-04-03T00:10:47;4.07;;;1.67;;
25717;SDS011;13574;52.040;5.692;2023-04-03T00:13:13;5.30;;;2.13;;
25717;SDS011;13574;52.040;5.692;2023-04-03T00:15:39;3.05;;;1.33;;
25717;SDS011;13574;52.040;5.692;2023-04-03T00:18:06;5.15;;;1.90;;
25717;SDS011;13574;52.040;5.692;2023-04-03T00:20:32;3.15;;;1.60;;
25717;SDS011;13574;52.040;5.692;2023-04-03T00:22:58;6.75;;;1.80;;
25717;SDS011;13574;52.040;5.692;2023-04-03T00:25:24;5.93;;;1.70;;
25717;SDS011;13574;52.040;5.692;2023-04-03T00:27:50;3.50;;;1.60;;
25717;SDS011;13574;52.040;5.692;2023-04-03T00:30:16;3.25;;;1.67;;
25717;SDS011;13574;52.040;5.692;2023-04-03T00:32:43;5.45;;;1.80;;
25717;SDS011;13574;52.040;5.692;2023-04-03T00:35:09;3.58;;;1.75;;
25717;SDS011;13574;52.040;5.692;2023-04-03T00:37:35;4.47;;;1.63;;
25717;SDS011;13574;52.040;5.692;2023-04-03T00:40:01;2.92;;;1.73;;
25717;SDS011;13574;52.040;5.692;2023-04-03T00:42:28;5.55;;;1.83;;
25717;SDS011;13574;52.040;5.692;2023-04-03T00:47:22;4.30;;;1.60;;
25717;SDS011;13574;52.040;5.692;2023-04-03T00:49:49;5.47;;;1.80;;
25717;SDS011;13574;52.040;5.692;2023-04-03T00:52:17;4.32;;;1.60;;
25717;SDS011;13574;52.040;5.692;2023-04-03T00:54:46;3.95;;;1.67;;
25717;SDS011;13574;52.040;5.692;2023-04-03T00:57:14;3.15;;;1.80;;
25717;SDS011;13574;52.040;5.692;2023-04-03T00:59:43;3.90;;;1.85;;
25717;SDS011;13574;52.040;5.692;2023-04-03T01:02:13;5.85;;;1.77;;
25717;SDS011;13574;52.040;5.692;2023-04-03T01:04:40;4.25;;;1.88;;
25717;SDS011;13574;52.040;5.692;2023-04-03T01:07:18;4.55;;;1.58;;
25717;SDS011;13574;52.040;5.692;2023-04-03T01:09:47;3.72;;;1.75;;
25717;SDS011;13574;52.040;5.692;2023-04-03T01:12:19;3.75;;;1.58;;
25717;SDS011;13574;52.040;5.692;2023-04-03T01:14:55;6.75;;;1.83;;
25717;SDS011;13574;52.040;5.692;2023-04-03T01:28:10;3.47;;;1.52;;
25717;SDS011;13574;52.040;5.692;2023-04-03T01:31:02;3.92;;;1.80;;
25717;SDS011;13574;52.040;5.692;2023-04-03T01:33:45;2.97;;;1.80;;
25717;SDS011;13574;52.040;5.692;2023-04-03T01:36:13;4.55;;;1.90;;
25717;SDS011;13574;52.040;5.692;2023-04-03T01:38:41;4.63;;;2.13;;
25717;SDS011;13574;52.040;5.692;2023-04-03T01:41:07;3.78;;;1.92;;
25717;SDS011;13574;52.040;5.692;2023-04-03T01:43:32;3.70;;;1.77;;
25717;SDS011;13574;52.040;5.692;2023-04-03T01:45:58;4.50;;;1.48;;
25717;SDS011;13574;52.040;5.692;2023-04-03T01:48:23;3.17;;;1.70;;
25717;SDS011;13574;52.040;5.692;2023-04-03T01:50:49;5.65;;;1.90;;
25717;SDS011;13574;52.040;5.692;2023-04-03T01:53:15;4.00;;;1.80;;
25717;SDS011;13574;52.040;5.692;2023-04-03T01:55:41;4.03;;;2.10;;
25717;SDS011;13574;52.040;5.692;2023-04-03T01:58:06;4.60;;;2.13;;
25717;SDS011;13574;52.040;5.692;2023-04-03T02:00:32;5.03;;;1.63;;
25717;SDS011;13574;52.040;5.692;2023-04-03T02:02:57;4.32;;;1.80;;
25717;SDS011;13574;52.040;5.692;2023-04-03T02:05:23;3.33;;;1.63;;
25717;SDS011;13574;52.040;5.692;2023-04-03T02:07:49;4.03;;;2.20;;
25717;SDS011;13574;52.040;5.692;2023-04-03T02:10:15;4.63;;;1.90;;
25717;SDS011;13574;52.040;5.692;2023-04-03T02:12:40;4.43;;;1.80;;
25717;SDS011;13574;52.040;5.692;2023-04-03T02:15:06;5.75;;;1.80;;
25717;SDS011;13574;52.040;5.692;2023-04-03T02:17:32;4.20;;;2.10;;
25717;SDS011;13574;52.040;5.692;2023-04-03T02:19:58;4.95;;;2.05;;
25717;SDS011;13574;52.040;5.692;2023-04-03T02:22:23;4.50;;;2.05;;
25717;SDS011;13574;52.040;5.692;2023-04-03T02:24:49;5.82;;;2.13;;
25717;SDS011;13574;52.040;5.692;2023-04-03T02:27:14;4.47;;;2.05;;
25717;SDS011;13574;52.040;5.692;2023-04-03T02:29:40;5.72;;;2.13;;
25717;SDS011;13574;52.040;5.692;2023-04-03T02:32:06;3.40;;;1.67;;
25717;SDS011;13574;52.040;5.692;2023-04-03T02:34:32;6.68;;;2.30;;
25717;SDS011;13574;52.040;5.692;2023-04-03T02:36:57;7.00;;;2.42;;
25717;SDS011;13574;52.040;5.692;2023-04-03T02:39:23;5.68;;;2.25;;
25717;SDS011;13574;52.040;5.692;2023-04-03T02:41:49;7.55;;;2.10;;
25717;SDS011;13574;52.040;5.692;2023-04-03T02:44:14;5.95;;;2.33;;
25717;SDS011;13574;52.040;5.692;2023-04-03T02:46:40;6.43;;;2.15;;
25717;SDS011;13574;52.040;5.692;2023-04-03T02:49:05;7.43;;;2.00;;
25717;SDS011;13574;52.040;5.692;2023-04-03T02:51:31;5.13;;;2.40;;
25717;SDS011;13574;52.040;5.692;2023-04-03T02:53:57;5.55;;;2.17;;
25717;SDS011;13574;52.040;5.692;2023-04-03T02:56:23;5.32;;;2.20;;
25717;SDS011;13574;52.040;5.692;2023-04-03T02:58:48;6.20;;;2.30;;
25717;SDS011;13574;52.040;5.692;2023-04-03T03:01:14;5.28;;;2.50;;
25717;SDS011;13574;52.040;5.692;2023-04-03T03:03:40;6.85;;;2.78;;
25717;SDS011;13574;52.040;5.692;2023-04-03T03:06:09;5.78;;;2.42;;
25717;SDS011;13574;52.040;5.692;2023-04-03T03:11:02;6.25;;;2.03;;
25717;SDS011;13574;52.040;5.692;2023-04-03T03:13:29;5.00;;;2.10;;
25717;SDS011;13574;52.040;5.692;2023-04-03T03:15:55;4.80;;;2.00;;
25717;SDS011;13574;52.040;5.692;2023-04-03T03:18:21;5.05;;;2.25;;
25717;SDS011;13574;52.040;5.692;2023-04-03T03:20:50;6.32;;;2.22;;
25717;SDS011;13574;52.040;5.692;2023-04-03T03:23:16;6.40;;;2.38;;
25717;SDS011;13574;52.040;5.692;2023-04-03T03:25:42;5.93;;;2.47;;
25717;SDS011;13574;52.040;5.692;2023-04-03T03:28:08;4.57;;;2.40;;
25717;SDS011;13574;52.040;5.692;2023-04-03T03:30:33;6.78;;;2.60;;
25717;SDS011;13574;52.040;5.692;2023-04-03T03:33:00;6.70;;;2.50;;
25717;SDS011;13574;52.040;5.692;2023-04-03T03:35:26;6.40;;;2.58;;
25717;SDS011;13574;52.040;5.692;2023-04-03T03:37:52;4.30;;;2.03;;
25717;SDS011;13574;52.040;5.692;2023-04-03T03:40:17;8.90;;;2.28;;
25717;SDS011;13574;52.040;5.692;2023-04-03T03:42:43;6.70;;;2.42;;
25717;SDS011;13574;52.040;5.692;2023-04-03T03:45:09;7.50;;;2.22;;
25717;SDS011;13574;52.040;5.692;2023-04-03T03:47:35;4.90;;;2.47;;
25717;SDS011;13574;52.040;5.692;2023-04-03T03:50:01;6.93;;;2.50;;
25717;SDS011;13574;52.040;5.692;2023-04-03T03:52:26;4.20;;;2.00;;
25717;SDS011;13574;52.040;5.692;2023-04-03T03:54:52;4.97;;;2.40;;
25717;SDS011;13574;52.040;5.692;2023-04-03T03:57:18;5.07;;;2.75;;
25717;SDS011;13574;52.040;5.692;2023-04-03T03:59:43;5.03;;;2.50;;
25717;SDS011;13574;52.040;5.692;2023-04-03T04:02:09;3.55;;;2.15;;
25717;SDS011;13574;52.040;5.692;2023-04-03T04:04:36;8.68;;;2.70;;
25717;SDS011;13574;52.040;5.692;2023-04-03T04:07:02;4.88;;;2.50;;
25717;SDS011;13574;52.040;5.692;2023-04-03T04:09:28;5.53;;;2.78;;
25717;SDS011;13574;52.040;5.692;2023-04-03T04:11:53;5.40;;;2.88;;
25717;SDS011;13574;52.040;5.692;2023-04-03T04:14:19;6.93;;;2.33;;
25717;SDS011;13574;52.040;5.692;2023-04-03T04:16:48;5.32;;;2.67;;
25717;SDS011;13574;52.040;5.692;2023-04-03T04:19:14;5.60;;;2.50;;
25717;SDS011;13574;52.040;5.692;2023-04-03T04:21:39;6.35;;;2.67;;
25717;SDS011;13574;52.040;5.692;2023-04-03T04:24:06;5.38;;;2.70;;
25717;SDS011;13574;52.040;5.692;2023-04-03T04:26:32;5.15;;;2.58;;
25717;SDS011;13574;52.040;5.692;2023-04-03T04:28:58;5.68;;;2.40;;
25717;SDS011;13574;52.040;5.692;2023-04-03T04:31:24;5.35;;;2.72;;
25717;SDS011;13574;52.040;5.692;2023-04-03T04:33:49;6.88;;;2.78;;
25717;SDS011;13574;52.040;5.692;2023-04-03T04:36:15;5.13;;;2.50;;
25717;SDS011;13574;52.040;5.692;2023-04-03T04:38:41;7.30;;;2.97;;
25717;SDS011;13574;52.040;5.692;2023-04-03T04:41:07;6.05;;;2.78;;
25717;SDS011;13574;52.040;5.692;2023-04-03T04:43:33;7.15;;;2.80;;
25717;SDS011;13574;52.040;5.692;2023-04-03T04:46:05;10.98;;;2.70;;
25717;SDS011;13574;52.040;5.692;2023-04-03T04:48:34;10.93;;;2.75;;
25717;SDS011;13574;52.040;5.692;2023-04-03T04:51:01;11.38;;;2.90;;
25717;SDS011;13574;52.040;5.692;2023-04-03T04:53:27;9.63;;;2.95;;
25717;SDS011;13574;52.040;5.692;2023-04-03T04:55:53;7.88;;;2.90;;
25717;SDS011;13574;52.040;5.692;2023-04-03T04:58:19;10.13;;;2.80;;
25717;SDS011;13574;52.040;5.692;2023-04-03T05:00:45;6.15;;;2.63;;
25717;SDS011;13574;52.040;5.692;2023-04-03T05:03:11;4.43;;;2.30;;
25717;SDS011;13574;52.040;5.692;2023-04-03T05:05:39;7.22;;;2.60;;
25717;SDS011;13574;52.040;5.692;2023-04-03T05:08:05;7.72;;;2.70;;
25717;SDS011;13574;52.040;5.692;2023-04-03T05:10:34;10.82;;;3.00;;
25717;SDS011;13574;52.040;5.692;2023-04-03T05:13:00;6.43;;;3.03;;
25717;SDS011;13574;52.040;5.692;2023-04-03T05:15:25;8.02;;;2.95;;
25717;SDS011;13574;52.040;5.692;2023-04-03T05:17:51;7.72;;;2.95;;
25717;SDS011;13574;52.040;5.692;2023-04-03T05:20:17;13.13;;;3.25;;
25717;SDS011;13574;52.040;5.692;2023-04-03T05:22:43;13.00;;;3.10;;
25717;SDS011;13574;52.040;5.692;2023-04-03T05:25:08;9.93;;;3.08;;
25717;SDS011;13574;52.040;5.692;2023-04-03T05:27:34;14.23;;;3.00;;
25717;SDS011;13574;52.040;5.692;2023-04-03T05:30:00;10.02;;;3.13;;
25717;SDS011;13574;52.040;5.692;2023-04-03T05:32:26;5.47;;;3.00;;
25717;SDS011;13574;52.040;5.692;2023-04-03T05:34:52;9.35;;;3.33;;
25717;SDS011;13574;52.040;5.692;2023-04-03T05:37:18;7.20;;;2.78;;
25717;SDS011;13574;52.040;5.692;2023-04-03T05:39:44;8.43;;;3.13;;
25717;SDS011;13574;52.040;5.692;2023-04-03T05:42:10;11.32;;;2.72;;
25717;SDS011;13574;52.040;5.692;2023-04-03T05:44:37;6.78;;;3.08;;
25717;SDS011;13574;52.040;5.692;2023-04-03T05:47:03;8.38;;;3.03;;
25717;SDS011;13574;52.040;5.692;2023-04-03T05:49:29;9.75;;;3.00;;
25717;SDS011;13574;52.040;5.692;2023-04-03T05:51:55;9.88;;;2.97;;
25717;SDS011;13574;52.040;5.692;2023-04-03T05:54:29;8.10;;;2.80;;
25717;SDS011;13574;52.040;5.692;2023-04-03T05:56:55;6.72;;;2.50;;
25717;SDS011;13574;52.040;5.692;2023-04-03T05:59:21;9.40;;;3.10;;
25717;SDS011;13574;52.040;5.692;2023-04-03T06:01:47;9.07;;;2.53;;
25717;SDS011;13574;52.040;5.692;2023-04-03T06:04:13;7.60;;;2.60;;
25717;SDS011;13574;52.040;5.692;2023-04-03T06:06:46;6.57;;;2.42;;
25717;SDS011;13574;52.040;5.692;2023-04-03T06:09:18;7.80;;;2.58;;
25717;SDS011;13574;52.040;5.692;2023-04-03T06:11:45;8.65;;;2.72;;
25717;SDS011;13574;52.040;5.692;2023-04-03T06:14:11;6.00;;;2.55;;
25717;SDS011;13574;52.040;5.692;2023-04-03T06:16:37;9.65;;;2.85;;
25717;SDS011;13574;52.040;5.692;2023-04-03T06:19:04;6.07;;;2.40;;
25717;SDS011;13574;52.040;5.692;2023-04-03T06:21:30;9.98;;;3.00;;
25717;SDS011;13574;52.040;5.692;2023-04-03T06:23:56;4.63;;;2.30;;
25717;SDS011;13574;52.040;5.692;2023-04-03T06:26:22;8.43;;;2.72;;
25717;SDS011;13574;52.040;5.692;2023-04-03T06:28:48;5.88;;;2.50;;
25717;SDS011;13574;52.040;5.692;2023-04-03T06:31:14;7.53;;;2.10;;
25717;SDS011;13574;52.040;5.692;2023-04-03T06:33:40;12.02;;;2.78;;
25717;SDS011;13574;52.040;5.692;2023-04-03T06:36:06;8.25;;;2.78;;
25717;SDS011;13574;52.040;5.692;2023-04-03T06:38:33;10.57;;;2.42;;
25717;SDS011;13574;52.040;5.692;2023-04-03T06:40:59;6.70;;;2.30;;
25717;SDS011;13574;52.040;5.692;2023-04-03T06:43:25;9.10;;;2.30;;
25717;SDS011;13574;52.040;5.692;2023-04-03T06:45:51;6.78;;;2.50;;
25717;SDS011;13574;52.040;5.692;2023-04-03T06:48:17;11.00;;;2.78;;
25717;SDS011;13574;52.040;5.692;2023-04-03T06:50:43;7.30;;;2.25;;
25717;SDS011;13574;52.040;5.692;2023-04-03T06:53:09;4.80;;;2.15;;
25717;SDS011;13574;52.040;5.692;2023-04-03T06:55:35;6.60;;;2.00;;
25717;SDS011;13574;52.040;5.692;2023-04-03T06:58:02;8.73;;;2.30;;
25717;SDS011;13574;52.040;5.692;2023-04-03T07:00:28;6.20;;;2.30;;
25717;SDS011;13574;52.040;5.692;2023-04-03T07:02:55;6.20;;;2.20;;
25717;SDS011;13574;52.040;5.692;2023-04-03T07:05:22;7.72;;;2.25;;
25717;SDS011;13574;52.040;5.692;2023-04-03T07:07:48;10.45;;;2.00;;
25717;SDS011;13574;52.040;5.692;2023-04-03T07:10:15;4.85;;;1.92;;
25717;SDS011;13574;52.040;5.692;2023-04-03T07:12:41;7.28;;;2.13;;
25717;SDS011;13574;52.040;5.692;2023-04-03T07:15:07;6.70;;;2.15;;
25717;SDS011;13574;52.040;5.692;2023-04-03T07:17:34;8.05;;;2.05;;
25717;SDS011;13574;52.040;5.692;2023-04-03T07:20:01;5.47;;;1.67;;
25717;SDS011;13574;52.040;5.692;2023-04-03T07:22:27;6.38;;;2.15;;
25717;SDS011;13574;52.040;5.692;2023-04-03T07:24:53;5.47;;;1.70;;
25717;SDS011;13574;52.040;5.692;2023-04-03T07:27:18;9.65;;;1.98;;
25717;SDS011;13574;52.040;5.692;2023-04-03T07:29:44;8.15;;;2.20;;
25717;SDS011;13574;52.040;5.692;2023-04-03T07:32:13;4.45;;;1.63;;
25717;SDS011;13574;52.040;5.692;2023-04-03T07:34:39;4.97;;;1.77;;
25717;SDS011;13574;52.040;5.692;2023-04-03T07:37:05;5.40;;;1.60;;
25717;SDS011;13574;52.040;5.692;2023-04-03T07:39:31;8.50;;;2.00;;
25717;SDS011;13574;52.040;5.692;2023-04-03T07:41:57;2.72;;;1.45;;
25717;SDS011;13574;52.040;5.692;2023-04-03T07:44:23;4.15;;;1.77;;
25717;SDS011;13574;52.040;5.692;2023-04-03T07:46:49;3.80;;;1.83;;
25717;SDS011;13574;52.040;5.692;2023-04-03T07:49:15;6.40;;;1.75;;
25717;SDS011;13574;52.040;5.692;2023-04-03T07:51:43;4.03;;;1.55;;
25717;SDS011;13574;52.040;5.692;2023-04-03T07:54:09;4.20;;;1.77;;
25717;SDS011;13574;52.040;5.692;2023-04-03T07:56:35;4.53;;;1.80;;
25717;SDS011;13574;52.040;5.692;2023-04-03T07:59:01;6.65;;;1.50;;
25717;SDS011;13574;52.040;5.692;2023-04-03T08:01:26;5.07;;;1.50;;
25717;SDS011;13574;52.040;5.692;2023-04-03T08:03:52;5.07;;;1.40;;
25717;SDS011;13574;52.040;5.692;2023-04-03T08:06:18;3.53;;;1.20;;
25717;SDS011;13574;52.040;5.692;2023-04-03T08:08:44;6.32;;;1.50;;
25717;SDS011;13574;52.040;5.692;2023-04-03T08:11:10;7.85;;;1.42;;
25717;SDS011;13574;52.040;5.692;2023-04-03T08:13:36;4.30;;;1.33;;
25717;SDS011;13574;52.040;5.692;2023-04-03T08:16:12;6.95;;;1.73;;
25717;SDS011;13574;52.040;5.692;2023-04-03T08:18:42;7.65;;;1.38;;
25717;SDS011;13574;52.040;5.692;2023-04-03T08:21:09;2.80;;;1.20;;
25717;SDS011;13574;52.040;5.692;2023-04-03T08:23:35;4.15;;;1.05;;
25717;SDS011;13574;52.040;5.692;2023-04-03T08:26:06;5.97;;;1.45;;
25717;SDS011;13574;52.040;5.692;2023-04-03T08:28:35;2.42;;;1.10;;
25717;SDS011;13574;52.040;5.692;2023-04-03T08:31:05;2.20;;;0.98;;
25717;SDS011;13574;52.040;5.692;2023-04-03T08:33:32;18.98;;;1.67;;
25717;SDS011;13574;52.040;5.692;2023-04-03T08:36:01;4.80;;;1.10;;
25717;SDS011;13574;52.040;5.692;2023-04-03T08:38:27;2.63;;;0.90;;
25717;SDS011;13574;52.040;5.692;2023-04-03T08:41:01;3.88;;;1.00;;
25717;SDS011;13574;52.040;5.692;2023-04-03T08:43:37;4.60;;;1.10;;
25717;SDS011;13574;52.040;5.692;2023-04-03T08:46:10;2.60;;;0.77;;
25717;SDS011;13574;52.040;5.692;2023-04-03T08:48:42;1.38;;;0.65;;
25717;SDS011;13574;52.040;5.692;2023-04-03T08:51:18;2.78;;;1.05;;
25717;SDS011;13574;52.040;5.692;2023-04-03T08:54:07;2.40;;;0.80;;
25717;SDS011;13574;52.040;5.692;2023-04-03T08:56:40;4.00;;;0.77;;
25717;SDS011;13574;52.040;5.692;2023-04-03T08:59:09;1.75;;;0.50;;
25717;SDS011;13574;52.040;5.692;2023-04-03T09:01:39;2.55;;;0.85;;
25717;SDS011;13574;52.040;5.692;2023-04-03T09:04:12;1.60;;;0.75;;
25717;SDS011;13574;52.040;5.692;2023-04-03T09:06:41;3.40;;;1.00;;
25717;SDS011;13574;52.040;5.692;2023-04-03T09:22:20;3.28;;;0.68;;
25717;SDS011;13574;52.040;5.692;2023-04-03T09:25:10;3.53;;;0.60;;
25717;SDS011;13574;52.040;5.692;2023-04-03T09:27:43;4.90;;;0.60;;
25717;SDS011;13574;52.040;5.692;2023-04-03T09:30:12;2.83;;;0.32;;
25717;SDS011;13574;52.040;5.692;2023-04-03T09:32:50;3.08;;;0.50;;
25717;SDS011;13574;52.040;5.692;2023-04-03T09:37:51;1.73;;;0.60;;
25717;SDS011;13574;52.040;5.692;2023-04-03T09:42:50;1.75;;;0.40;;
25717;SDS011;13574;52.040;5.692;2023-04-03T09:45:34;2.80;;;0.50;;
25717;SDS011;13574;52.040;5.692;2023-04-03T09:50:32;5.82;;;0.47;;
25717;SDS011;13574;52.040;5.692;2023-04-03T09:52:59;1.77;;;0.40;;
25717;SDS011;13574;52.040;5.692;2023-04-03T09:55:30;2.75;;;0.38;;
25717;SDS011;13574;52.040;5.692;2023-04-03T09:58:00;8.90;;;0.57;;
25717;SDS011;13574;52.040;5.692;2023-04-03T10:00:33;3.30;;;0.68;;
25717;SDS011;13574;52.040;5.692;2023-04-03T10:03:01;1.55;;;0.40;;
25717;SDS011;13574;52.040;5.692;2023-04-03T10:05:35;0.80;;;0.40;;
25717;SDS011;13574;52.040;5.692;2023-04-03T10:10:43;4.95;;;0.40;;
25717;SDS011;13574;52.040;5.692;2023-04-03T10:13:11;1.02;;;0.50;;
25717;SDS011;13574;52.040;5.692;2023-04-03T10:15:48;2.15;;;0.90;;
25717;SDS011;13574;52.040;5.692;2023-04-03T10:30:21;2.22;;;0.55;;
25717;SDS011;13574;52.040;5.692;2023-04-03T10:35:53;0.77;;;0.40;;
25717;SDS011;13574;52.040;5.692;2023-04-03T10:38:40;2.50;;;0.55;;
25717;SDS011;13574;52.040;5.692;2023-04-03T10:41:19;2.25;;;0.50;;
25717;SDS011;13574;52.040;5.692;2023-04-03T10:46:35;2.35;;;0.60;;
25717;SDS011;13574;52.040;5.692;2023-04-03T10:51:47;2.17;;;0.60;;
25717;SDS011;13574;52.040;5.692;2023-04-03T10:54:24;2.47;;;0.65;;
25717;SDS011;13574;52.040;5.692;2023-04-03T10:57:13;3.28;;;0.90;;
25717;SDS011;13574;52.040;5.692;2023-04-03T10:59:39;1.60;;;0.65;;
25717;SDS011;13574;52.040;5.692;2023-04-03T11:02:15;2.13;;;0.65;;
25717;SDS011;13574;52.040;5.692;2023-04-03T11:04:54;2.20;;;0.70;;
25717;SDS011;13574;52.040;5.692;2023-04-03T11:07:26;5.65;;;0.98;;
25717;SDS011;13574;52.040;5.692;2023-04-03T11:10:00;7.25;;;0.90;;
25717;SDS011;13574;52.040;5.692;2023-04-03T11:12:44;2.75;;;0.70;;
25717;SDS011;13574;52.040;5.692;2023-04-03T11:15:17;2.17;;;0.70;;
25717;SDS011;13574;52.040;5.692;2023-04-03T11:17:48;2.05;;;0.70;;
25717;SDS011;13574;52.040;5.692;2023-04-03T11:20:28;1.60;;;0.68;;
25717;SDS011;13574;52.040;5.692;2023-04-03T11:23:19;2.38;;;0.60;;
25717;SDS011;13574;52.040;5.692;2023-04-03T11:25:49;5.70;;;0.77;;
25717;SDS011;13574;52.040;5.692;2023-04-03T11:28:17;1.42;;;0.77;;
25717;SDS011;13574;52.040;5.692;2023-04-03T11:33:45;1.73;;;0.65;;
25717;SDS011;13574;52.040;5.692;2023-04-03T11:36:23;2.38;;;0.68;;
25717;SDS011;13574;52.040;5.692;2023-04-03T11:38:55;3.67;;;0.90;;
25717;SDS011;13574;52.040;5.692;2023-04-03T11:41:26;2.45;;;0.88;;
25717;SDS011;13574;52.040;5.692;2023-04-03T11:44:02;2.88;;;0.80;;
25717;SDS011;13574;52.040;5.692;2023-04-03T11:46:57;2.65;;;0.80;;
25717;SDS011;13574;52.040;5.692;2023-04-03T12:29:51;2.33;;;0.80;;
25717;SDS011;13574;52.040;5.692;2023-04-03T12:50:45;4.15;;;0.90;;
25717;SDS011;13574;52.040;5.692;2023-04-03T12:53:16;2.95;;;1.10;;
25717;SDS011;13574;52.040;5.692;2023-04-03T12:56:18;4.40;;;0.80;;
25717;SDS011;13574;52.040;5.692;2023-04-03T12:58:46;2.08;;;0.75;;
25717;SDS011;13574;52.040;5.692;2023-04-03T13:01:14;4.97;;;0.90;;
25717;SDS011;13574;52.040;5.692;2023-04-03T13:03:44;3.08;;;1.00;;
25717;SDS011;13574;52.040;5.692;2023-04-03T13:06:19;2.80;;;0.90;;
25717;SDS011;13574;52.040;5.692;2023-04-03T13:08:49;1.52;;;0.70;;
25717;SDS011;13574;52.040;5.692;2023-04-03T13:11:16;4.90;;;0.80;;
25717;SDS011;13574;52.040;5.692;2023-04-03T13:13:58;3.25;;;0.80;;
25717;SDS011;13574;52.040;5.692;2023-04-03T13:16:30;2.70;;;1.00;;
25717;SDS011;13574;52.040;5.692;2023-04-03T13:18:57;2.33;;;0.80;;
25717;SDS011;13574;52.040;5.692;2023-04-03T13:21:28;2.53;;;0.80;;
25717;SDS011;13574;52.040;5.692;2023-04-03T13:24:00;3.53;;;0.93;;
25717;SDS011;13574;52.040;5.692;2023-04-03T13:26:29;2.92;;;1.00;;
25717;SDS011;13574;52.040;5.692;2023-04-03T13:28:59;3.08;;;0.90;;
25717;SDS011;13574;52.040;5.692;2023-04-03T13:31:32;7.10;;;1.10;;
25717;SDS011;13574;52.040;5.692;2023-04-03T13:36:36;4.10;;;0.90;;
25717;SDS011;13574;52.040;5.692;2023-04-03T13:41:41;3.15;;;1.00;;
25717;SDS011;13574;52.040;5.692;2023-04-03T13:44:17;2.78;;;0.93;;
25717;SDS011;13574;52.040;5.692;2023-04-03T13:49:19;2.20;;;0.80;;
25717;SDS011;13574;52.040;5.692;2023-04-03T13:51:55;5.57;;;1.10;;
25717;SDS011;13574;52.040;5.692;2023-04-03T13:54:31;3.47;;;1.25;;
25717;SDS011;13574;52.040;5.692;2023-04-03T13:57:02;2.70;;;0.95;;
25717;SDS011;13574;52.040;5.692;2023-04-03T13:59:36;3.90;;;1.00;;
25717;SDS011;13574;52.040;5.692;2023-04-03T14:04:29;1.80;;;0.80;;
25717;SDS011;13574;52.040;5.692;2023-04-03T14:06:56;9.30;;;1.30;;
25717;SDS011;13574;52.040;5.692;2023-04-03T14:09:23;5.30;;;1.00;;
25717;SDS011;13574;52.040;5.692;2023-04-03T14:11:52;2.90;;;1.25;;
25717;SDS011;13574;52.040;5.692;2023-04-03T14:14:21;6.05;;;1.60;;
25717;SDS011;13574;52.040;5.692;2023-04-03T14:16:54;3.55;;;0.95;;
25717;SDS011;13574;52.040;5.692;2023-04-03T14:21:53;3.97;;;1.10;;
25717;SDS011;13574;52.040;5.692;2023-04-03T14:24:20;2.67;;;0.90;;
25717;SDS011;13574;52.040;5.692;2023-04-03T14:26:46;2.08;;;0.93;;
25717;SDS011;13574;52.040;5.692;2023-04-03T14:29:13;3.22;;;1.10;;
25717;SDS011;13574;52.040;5.692;2023-04-03T14:31:40;4.25;;;1.00;;
25717;SDS011;13574;52.040;5.692;2023-04-03T14:34:09;3.03;;;1.00;;
25717;SDS011;13574;52.040;5.692;2023-04-03T14:36:36;3.25;;;1.20;;
25717;SDS011;13574;52.040;5.692;2023-04-03T14:39:04;4.65;;;1.20;;
25717;SDS011;13574;52.040;5.692;2023-04-03T14:41:31;3.13;;;1.10;;
25717;SDS011;13574;52.040;5.692;2023-04-03T14:43:57;7.93;;;1.13;;
25717;SDS011;13574;52.040;5.692;2023-04-03T14:46:33;4.68;;;1.40;;
25717;SDS011;13574;52.040;5.692;2023-04-03T14:49:01;3.95;;;1.50;;
25717;SDS011;13574;52.040;5.692;2023-04-03T14:51:27;2.53;;;1.20;;
25717;SDS011;13574;52.040;5.692;2023-04-03T14:53:53;2.75;;;1.17;;
25717;SDS011;13574;52.040;5.692;2023-04-03T14:56:27;3.65;;;1.40;;
25717;SDS011;13574;52.040;5.692;2023-04-03T14:58:58;3.65;;;1.50;;
25717;SDS011;13574;52.040;5.692;2023-04-03T15:01:26;4.68;;;1.48;;
25717;SDS011;13574;52.040;5.692;2023-04-03T15:03:53;4.22;;;1.30;;
25717;SDS011;13574;52.040;5.692;2023-04-03T15:06:19;3.40;;;1.10;;
25717;SDS011;13574;52.040;5.692;2023-04-03T15:08:46;5.78;;;1.25;;
25717;SDS011;13574;52.040;5.692;2023-04-03T15:11:13;6.82;;;1.20;;
25717;SDS011;13574;52.040;5.692;2023-04-03T15:13:39;5.03;;;1.40;;
25717;SDS011;13574;52.040;5.692;2023-04-03T15:16:06;3.80;;;1.23;;
25717;SDS011;13574;52.040;5.692;2023-04-03T15:18:42;3.80;;;1.33;;
25717;SDS011;13574;52.040;5.692;2023-04-03T15:21:08;4.72;;;1.60;;
25717;SDS011;13574;52.040;5.692;2023-04-03T15:23:34;4.53;;;1.33;;
25717;SDS011;13574;52.040;5.692;2023-04-03T15:25:59;9.38;;;1.40;;
25717;SDS011;13574;52.040;5.692;2023-04-03T15:28:36;3.50;;;1.77;;
25717;SDS011;13574;52.040;5.692;2023-04-03T15:31:07;3.15;;;1.23;;
25717;SDS011;13574;52.040;5.692;2023-04-03T15:33:33;3.65;;;1.20;;
25717;SDS011;13574;52.040;5.692;2023-04-03T15:36:00;4.85;;;1.70;;
25717;SDS011;13574;52.040;5.692;2023-04-03T15:38:26;4.07;;;1.40;;
25717;SDS011;13574;52.040;5.692;2023-04-03T15:40:53;7.75;;;1.70;;
25717;SDS011;13574;52.040;5.692;2023-04-03T15:43:23;5.45;;;1.30;;
25717;SDS011;13574;52.040;5.692;2023-04-03T15:45:49;4.40;;;1.45;;
25717;SDS011;13574;52.040;5.692;2023-04-03T15:48:18;4.50;;;1.40;;
25717;SDS011;13574;52.040;5.692;2023-04-03T15:50:43;3.10;;;1.58;;
25717;SDS011;13574;52.040;5.692;2023-04-03T15:53:09;9.23;;;1.85;;
25717;SDS011;13574;52.040;5.692;2023-04-03T15:55:36;3.17;;;1.17;;
25717;SDS011;13574;52.040;5.692;2023-04-03T15:58:02;4.65;;;1.50;;
25717;SDS011;13574;52.040;5.692;2023-04-03T16:00:29;5.82;;;2.90;;
25717;SDS011;13574;52.040;5.692;2023-04-03T16:02:59;3.22;;;1.10;;
25717;SDS011;13574;52.040;5.692;2023-04-03T16:05:35;5.10;;;2.00;;
25717;SDS011;13574;52.040;5.692;2023-04-03T16:08:03;6.25;;;1.50;;
25717;SDS011;13574;52.040;5.692;2023-04-03T16:10:30;5.18;;;1.40;;
25717;SDS011;13574;52.040;5.692;2023-04-03T16:12:56;2.65;;;1.30;;
25717;SDS011;13574;52.040;5.692;2023-04-03T16:15:22;4.97;;;1.23;;
25717;SDS011;13574;52.040;5.692;2023-04-03T16:17:53;4.07;;;1.20;;
25717;SDS011;13574;52.040;5.692;2023-04-03T16:23:42;4.40;;;1.50;;
25717;SDS011;13574;52.040;5.692;2023-04-03T16:26:41;4.97;;;1.20;;
25717;SDS011;13574;52.040;5.692;2023-04-03T16:32:31;4.03;;;1.50;;
25717;SDS011;13574;52.040;5.692;2023-04-03T16:35:04;5.68;;;1.70;;
25717;SDS011;13574;52.040;5.692;2023-04-03T16:37:35;2.40;;;1.00;;
25717;SDS011;13574;52.040;5.692;2023-04-03T16:40:05;3.92;;;1.30;;
25717;SDS011;13574;52.040;5.692;2023-04-03T16:42:33;6.72;;;1.40;;
25717;SDS011;13574;52.040;5.692;2023-04-03T16:45:06;4.45;;;1.40;;
25717;SDS011;13574;52.040;5.692;2023-04-03T16:47:32;4.72;;;1.38;;
25717;SDS011;13574;52.040;5.692;2023-04-03T16:50:01;3.95;;;1.60;;
25717;SDS011;13574;52.040;5.692;2023-04-03T16:52:27;3.42;;;1.30;;
25717;SDS011;13574;52.040;5.692;2023-04-03T16:54:53;5.82;;;1.50;;
25717;SDS011;13574;52.040;5.692;2023-04-03T16:57:20;2.78;;;1.10;;
25717;SDS011;13574;52.040;5.692;2023-04-03T16:59:54;5.07;;;2.05;;
25717;SDS011;13574;52.040;5.692;2023-04-03T17:02:27;5.30;;;1.77;;
25717;SDS011;13574;52.040;5.692;2023-04-03T17:04:57;4.80;;;2.83;;
25717;SDS011;13574;52.040;5.692;2023-04-03T17:07:23;4.13;;;1.58;;
25717;SDS011;13574;52.040;5.692;2023-04-03T17:09:50;3.65;;;1.20;;
25717;SDS011;13574;52.040;5.692;2023-04-03T17:12:16;3.22;;;1.30;;
25717;SDS011;13574;52.040;5.692;2023-04-03T17:14:42;4.50;;;1.38;;
25717;SDS011;13574;52.040;5.692;2023-04-03T17:17:17;3.75;;;1.52;;